Time;durP1;ratioP1;P1;durP2;ratioP2;P2;SDS_P1;SDS_P2;PMS_P1;PMS_P2;Temp;Humidity;BMP_temperature;BMP_pressure;BME280_temperature;BME280_humidity;BME280_pressure;Samples;Min_cycle;Max_cycle;Signal;HPM_P1;HPM_P2
2021/07/17 00:00:49;;;;;;;34.83;18.02;;;;;;;;;;3572257;40;20262;-79
2021/07/17 00:03:28;;;;;;;35.38;18.00;;;;;;;;;;3572025;40;20228;-79
2021/07/17 00:06:02;;;;;;;33.10;16.17;;;;;;;;;;3572111;40;20591;-78
2021/07/17 00:08:36;;;;;;;28.67;18.17;;;;;;;;;;3570468;40;20228;-79
2021/07/17 00:11:22;;;;;;;26.63;18.25;;;;;;;;;;3571637;40;20251;-82
2021/07/17 00:13:55;;;;;;;29.50;16.67;;;;;;;;;;3571123;40;20236;-80
2021/07/17 00:16:29;;;;;;;29.48;18.02;;;;;;;;;;3572256;40;20242;-80
2021/07/17 00:19:16;;;;;;;24.98;17.00;;;;;;;;;;3572561;40;20271;-79
2021/07/17 00:21:43;;;;;;;34.47;17.95;;;;;;;;;;3572280;40;20276;-79
2021/07/17 00:24:23;;;;;;;32.88;18.70;;;;;;;;;;3572301;40;20228;-80
2021/07/17 00:27:03;;;;;;;31.08;17.15;;;;;;;;;;3763976;23;20298;-81
2021/07/17 00:29:30;;;;;;;33.90;18.25;;;;;;;;;;3706271;23;20275;-81
2021/07/17 00:32:05;;;;;;;35.00;18.75;;;;;;;;;;3687657;23;20570;-82
2021/07/17 00:34:44;;;;;;;29.40;18.40;;;;;;;;;;3615658;23;20243;-84
2021/07/17 00:37:24;;;;;;;29.67;17.73;;;;;;;;;;3723199;23;20245;-84
2021/07/17 00:39:57;;;;;;;27.90;18.15;;;;;;;;;;3624489;23;20246;-83
2021/07/17 00:42:39;;;;;;;32.28;18.02;;;;;;;;;;3686074;23;20274;-84
2021/07/17 00:45:19;;;;;;;33.90;17.02;;;;;;;;;;3658788;23;20243;-84
2021/07/17 00:48:06;;;;;;;29.63;16.63;;;;;;;;;;3793268;23;20269;-86
2021/07/17 00:53:39;;;;;;;33.95;18.08;;;;;;;;;;3641637;23;21199;31
2021/07/17 00:56:25;;;;;;;35.60;18.33;;;;;;;;;;3501581;23;22441;-81
2021/07/17 00:58:58;;;;;;;32.42;19.05;;;;;;;;;;3762618;23;20293;-81
2021/07/17 01:01:25;;;;;;;38.70;20.45;;;;;;;;;;3733440;23;20259;-85
2021/07/17 01:03:55;;;;;;;35.17;19.77;;;;;;;;;;3700958;23;21494;-82
2021/07/17 01:06:23;;;;;;;33.80;20.05;;;;;;;;;;3722542;23;20312;-78
2021/07/17 01:08:56;;;;;;;36.22;21.15;;;;;;;;;;3696481;23;20237;-84
2021/07/17 01:14:30;;;;;;;36.20;20.50;;;;;;;;;;3689098;23;20253;-82
2021/07/17 01:17:03;;;;;;;35.53;17.92;;;;;;;;;;3700959;23;20300;-84
2021/07/17 01:19:32;;;;;;;30.80;18.92;;;;;;;;;;3715463;23;20268;-83
2021/07/17 01:22:31;;;;;;;30.15;18.42;;;;;;;;;;3782250;23;20288;-83
2021/07/17 01:25:07;;;;;;;35.58;19.85;;;;;;;;;;3722447;23;20268;-81
2021/07/17 01:27:48;;;;;;;31.60;19.25;;;;;;;;;;3702695;23;20257;-83
2021/07/17 01:30:17;;;;;;;31.10;19.08;;;;;;;;;;3650051;23;20271;-83
2021/07/17 01:33:05;;;;;;;42.47;21.85;;;;;;;;;;3654745;23;20251;-83
2021/07/17 01:35:52;;;;;;;37.03;18.75;;;;;;;;;;3687317;23;20296;-84
2021/07/17 01:38:37;;;;;;;33.58;18.23;;;;;;;;;;3710696;23;20234;-83
2021/07/17 01:41:24;;;;;;;38.00;19.95;;;;;;;;;;3732175;23;20251;-83
2021/07/17 01:44:01;;;;;;;35.75;20.00;;;;;;;;;;3761697;23;20242;-84
2021/07/17 01:46:47;;;;;;;33.95;20.48;;;;;;;;;;3654435;23;21191;-86
2021/07/17 01:49:15;;;;;;;30.27;19.65;;;;;;;;;;3764958;23;20250;-81
2021/07/17 01:52:01;;;;;;;35.00;21.42;;;;;;;;;;3730465;23;20599;-83
2021/07/17 01:54:41;;;;;;;45.58;19.88;;;;;;;;;;3718316;23;20939;-82
2021/07/17 01:57:21;;;;;;;44.80;22.25;;;;;;;;;;3758757;23;20250;-82
2021/07/17 01:59:49;;;;;;;38.60;20.00;;;;;;;;;;3660125;23;20234;-84
2021/07/17 02:02:16;;;;;;;29.80;18.92;;;;;;;;;;3732978;23;20310;-82
2021/07/17 02:04:49;;;;;;;47.35;23.15;;;;;;;;;;3629571;23;20235;-86
2021/07/17 02:07:35;;;;;;;41.90;22.98;;;;;;;;;;3723007;23;20238;-79
2021/07/17 02:10:03;;;;;;;42.85;23.52;;;;;;;;;;3708842;23;20245;-85
2021/07/17 02:12:38;;;;;;;37.90;23.00;;;;;;;;;;3667890;23;21218;-83
2021/07/17 02:15:24;;;;;;;35.72;25.48;;;;;;;;;;3660545;23;20246;-84
2021/07/17 02:18:04;;;;;;;40.85;23.05;;;;;;;;;;3733660;23;20800;-81
2021/07/17 02:20:45;;;;;;;41.58;24.35;;;;;;;;;;3716222;23;20271;-82
2021/07/17 02:23:12;;;;;;;45.60;24.77;;;;;;;;;;3853451;23;20243;-80
2021/07/17 02:25:40;;;;;;;51.50;24.58;;;;;;;;;;3654570;23;20262;-85
2021/07/17 02:28:09;;;;;;;34.58;22.25;;;;;;;;;;3743516;23;20247;-82
2021/07/17 02:30:43;;;;;;;36.53;23.35;;;;;;;;;;3665618;23;20229;-83
2021/07/17 02:33:13;;;;;;;36.05;23.08;;;;;;;;;;3766588;23;20260;31
2021/07/17 02:35:52;;;;;;;41.03;23.00;;;;;;;;;;3716975;23;20246;-85
2021/07/17 02:38:21;;;;;;;33.65;24.05;;;;;;;;;;3725040;23;20235;31
2021/07/17 02:41:01;;;;;;;33.45;22.65;;;;;;;;;;3822486;23;20239;-83
2021/07/17 02:43:36;;;;;;;37.38;23.40;;;;;;;;;;3653264;23;20235;-84
2021/07/17 02:46:03;;;;;;;35.00;24.15;;;;;;;;;;3635121;23;20234;-85
2021/07/17 02:48:30;;;;;;;36.65;22.13;;;;;;;;;;3723202;23;20242;-84
2021/07/17 02:51:04;;;;;;;48.97;25.27;;;;;;;;;;3640481;23;20246;-80
2021/07/17 02:53:31;;;;;;;45.38;25.27;;;;;;;;;;3728346;23;21797;-83
2021/07/17 02:55:59;;;;;;;39.50;23.00;;;;;;;;;;3763224;23;21036;-81
2021/07/17 02:58:45;;;;;;;38.85;23.98;;;;;;;;;;3694043;23;20259;-82
2021/07/17 03:01:13;;;;;;;39.33;26.15;;;;;;;;;;3698569;23;20764;-81
2021/07/17 03:03:58;;;;;;;37.30;23.80;;;;;;;;;;3798117;23;20304;-82
2021/07/17 03:06:26;;;;;;;34.40;23.15;;;;;;;;;;3738399;23;1161698;-82
2021/07/17 03:08:57;;;;;;;43.75;24.75;;;;;;;;;;3842074;23;22847;31
2021/07/17 03:11:26;;;;;;;36.88;24.08;;;;;;;;;;3749548;23;20281;-84
2021/07/17 03:13:56;;;;;;;37.63;25.10;;;;;;;;;;3797660;23;20261;-82
2021/07/17 03:16:37;;;;;;;38.80;25.08;;;;;;;;;;3730565;23;21143;-82
2021/07/17 03:19:05;;;;;;;46.38;24.70;;;;;;;;;;3797501;23;20300;-82
2021/07/17 03:21:33;;;;;;;45.63;24.80;;;;;;;;;;3761835;23;20258;-81
2021/07/17 03:24:00;;;;;;;42.28;23.80;;;;;;;;;;3648678;23;21053;-82
2021/07/17 03:26:34;;;;;;;41.00;24.95;;;;;;;;;;3764478;23;21534;-80
2021/07/17 03:29:03;;;;;;;45.35;24.85;;;;;;;;;;3729213;23;20521;-80
2021/07/17 03:31:36;;;;;;;38.60;25.67;;;;;;;;;;3688645;23;20307;-83
2021/07/17 03:34:03;;;;;;;41.97;25.90;;;;;;;;;;3628141;23;20223;-83
2021/07/17 03:36:49;;;;;;;46.50;25.38;;;;;;;;;;3697132;23;20259;-84
2021/07/17 03:39:22;;;;;;;45.72;25.27;;;;;;;;;;3625353;23;20252;-81
2021/07/17 03:42:07;;;;;;;39.00;24.35;;;;;;;;;;3592847;40;20784;-82
2021/07/17 03:44:42;;;;;;;32.33;24.83;;;;;;;;;;3728918;23;21554;-83
2021/07/17 03:47:10;;;;;;;45.53;28.15;;;;;;;;;;3631065;23;20257;-83
2021/07/17 03:49:37;;;;;;;44.58;26.45;;;;;;;;;;3594237;40;20241;-82
2021/07/17 03:52:10;;;;;;;46.53;23.35;;;;;;;;;;3602848;40;20219;-82
2021/07/17 03:54:44;;;;;;;54.25;26.23;;;;;;;;;;3602823;40;20250;-80
2021/07/17 03:57:11;;;;;;;37.83;24.00;;;;;;;;;;3602690;40;20258;-82
2021/07/17 03:59:38;;;;;;;37.45;25.45;;;;;;;;;;3602728;40;20222;-81
2021/07/17 04:02:07;;;;;;;49.25;26.30;;;;;;;;;;3651391;23;20216;-81
2021/07/17 04:04:41;;;;;;;41.42;26.60;;;;;;;;;;3591836;40;20238;-82
2021/07/17 04:07:26;;;;;;;40.67;25.85;;;;;;;;;;3583773;40;20238;-83
2021/07/17 04:09:54;;;;;;;54.85;27.90;;;;;;;;;;3583751;40;20245;-81
2021/07/17 04:12:21;;;;;;;58.67;27.13;;;;;;;;;;3592213;40;20247;-80
2021/07/17 04:14:54;;;;;;;40.97;24.70;;;;;;;;;;3592374;40;20235;-81
2021/07/17 04:17:35;;;;;;;44.33;24.77;;;;;;;;;;3592250;40;20271;-80
2021/07/17 04:20:02;;;;;;;43.08;23.85;;;;;;;;;;3583507;40;20239;-82
2021/07/17 04:22:36;;;;;;;39.72;23.45;;;;;;;;;;3592244;40;20773;-82
2021/07/17 04:25:04;;;;;;;48.65;26.42;;;;;;;;;;3591759;40;20238;-86
2021/07/17 04:27:37;;;;;;;53.22;25.52;;;;;;;;;;3583748;40;20239;-81
2021/07/17 04:30:11;;;;;;;48.03;25.77;;;;;;;;;;3591726;40;20251;-82
2021/07/17 04:32:39;;;;;;;46.88;24.50;;;;;;;;;;3591483;40;20235;-80
2021/07/17 04:35:08;;;;;;;41.83;24.27;;;;;;;;;;3592063;40;20237;-81
2021/07/17 04:37:40;;;;;;;40.70;23.77;;;;;;;;;;3583633;40;20772;-80
2021/07/17 04:40:20;;;;;;;49.60;25.23;;;;;;;;;;3591636;40;20261;-82
2021/07/17 04:42:53;;;;;;;45.22;24.45;;;;;;;;;;3592058;40;20247;-81
2021/07/17 04:45:26;;;;;;;48.03;24.05;;;;;;;;;;3583998;40;20293;-81
2021/07/17 04:47:55;;;;;;;48.38;24.95;;;;;;;;;;3592076;40;20242;-81
2021/07/17 04:50:28;;;;;;;48.60;26.45;;;;;;;;;;3592143;40;20763;-82
2021/07/17 04:52:55;;;;;;;51.03;26.77;;;;;;;;;;3591422;40;20239;-81
2021/07/17 04:55:41;;;;;;;55.90;25.67;;;;;;;;;;3590018;40;20238;-80
2021/07/17 04:58:14;;;;;;;39.63;23.58;;;;;;;;;;3587898;40;20235;-85
2021/07/17 05:00:42;;;;;;;40.83;23.80;;;;;;;;;;3587757;40;20768;-83
2021/07/17 05:03:12;;;;;;;46.47;23.08;;;;;;;;;;3574875;40;20228;-80
2021/07/17 05:05:40;;;;;;;45.60;23.88;;;;;;;;;;3591973;40;20255;-81
2021/07/17 05:08:08;;;;;;;43.92;24.25;;;;;;;;;;3587469;40;20259;-80
2021/07/17 05:10:36;;;;;;;47.40;25.45;;;;;;;;;;3581544;40;20248;-81
2021/07/17 05:13:13;;;;;;;45.03;24.67;;;;;;;;;;3582241;40;20255;-81
2021/07/17 05:15:41;;;;;;;39.80;22.73;;;;;;;;;;3591774;40;20246;-83
2021/07/17 05:18:11;;;;;;;42.75;22.52;;;;;;;;;;3591480;40;20234;-81
2021/07/17 05:20:39;;;;;;;42.88;23.27;;;;;;;;;;3583253;40;20281;-81
2021/07/17 05:23:13;;;;;;;35.05;23.23;;;;;;;;;;3583236;40;20243;-80
2021/07/17 05:25:40;;;;;;;43.28;23.17;;;;;;;;;;3583275;40;20234;-81
2021/07/17 05:28:08;;;;;;;44.58;26.08;;;;;;;;;;3591805;40;20214;-83
2021/07/17 05:30:47;;;;;;;40.22;23.70;;;;;;;;;;3591351;40;20301;-80
2021/07/17 05:33:33;;;;;;;36.35;22.63;;;;;;;;;;3583239;40;20255;-81
2021/07/17 05:36:07;;;;;;;42.78;23.35;;;;;;;;;;3591499;40;20243;-81
2021/07/17 05:38:40;;;;;;;35.17;23.70;;;;;;;;;;3591699;40;20738;-81
2021/07/17 05:41:13;;;;;;;39.80;22.10;;;;;;;;;;3591560;40;20254;-80
2021/07/17 05:43:41;;;;;;;34.88;23.15;;;;;;;;;;3591078;40;20223;-80
2021/07/17 05:46:08;;;;;;;37.08;21.63;;;;;;;;;;3591808;40;20238;-80
2021/07/17 05:48:35;;;;;;;41.70;21.83;;;;;;;;;;3593242;40;20235;-80
2021/07/17 05:51:03;;;;;;;38.65;21.65;;;;;;;;;;3592548;40;20245;-80
2021/07/17 05:53:50;;;;;;;28.73;20.63;;;;;;;;;;3593369;40;20756;-79
2021/07/17 05:56:17;;;;;;;42.97;23.15;;;;;;;;;;3593205;40;20235;-80
2021/07/17 05:58:50;;;;;;;25.20;20.58;;;;;;;;;;3584694;40;20211;-81
2021/07/17 06:01:17;;;;;;;28.30;18.58;;;;;;;;;;3592990;40;20247;-79
2021/07/17 06:03:46;;;;;;;36.05;22.42;;;;;;;;;;3593190;40;20227;-84
2021/07/17 06:06:20;;;;;;;38.45;21.55;;;;;;;;;;3592654;40;20698;-80
2021/07/17 06:08:54;;;;;;;37.75;20.52;;;;;;;;;;3592551;40;20243;-82
2021/07/17 06:11:40;;;;;;;36.65;20.75;;;;;;;;;;3584579;40;20788;-80
2021/07/17 06:14:08;;;;;;;37.22;20.27;;;;;;;;;;3583896;40;20239;-80
2021/07/17 06:16:35;;;;;;;39.40;21.08;;;;;;;;;;3593131;40;20227;-82
2021/07/17 06:19:21;;;;;;;31.52;19.60;;;;;;;;;;3593199;40;20293;-81
2021/07/17 06:21:48;;;;;;;27.75;18.95;;;;;;;;;;3584401;40;20936;-81
2021/07/17 06:24:36;;;;;;;25.63;16.38;;;;;;;;;;3593183;40;20285;-81
2021/07/17 06:27:03;;;;;;;34.33;16.95;;;;;;;;;;3592246;40;20242;-81
2021/07/17 06:29:37;;;;;;;32.50;17.35;;;;;;;;;;3584579;40;20246;-82
2021/07/17 06:32:11;;;;;;;33.97;19.13;;;;;;;;;;3592377;40;20802;-82
2021/07/17 06:34:56;;;;;;;30.23;16.33;;;;;;;;;;3592384;40;20459;-81
2021/07/17 06:37:23;;;;;;;32.33;18.30;;;;;;;;;;3593012;40;20285;-82
2021/07/17 06:40:12;;;;;;;34.13;17.65;;;;;;;;;;3593077;40;20250;-80
2021/07/17 06:42:43;;;;;;;31.17;17.35;;;;;;;;;;3592699;40;20238;-80
2021/07/17 06:45:17;;;;;;;29.77;17.48;;;;;;;;;;3592339;40;20230;-81
2021/07/17 06:47:44;;;;;;;30.95;18.98;;;;;;;;;;3592628;40;20247;-84
2021/07/17 06:50:30;;;;;;;33.42;17.33;;;;;;;;;;3592883;40;20215;-83
2021/07/17 06:53:03;;;;;;;26.90;14.75;;;;;;;;;;3592711;40;20254;-82
2021/07/17 06:55:44;;;;;;;21.20;15.52;;;;;;;;;;3592486;40;20231;-80
2021/07/17 06:58:11;;;;;;;26.02;14.98;;;;;;;;;;3592850;40;20225;-83
2021/07/17 07:00:38;;;;;;;21.88;14.95;;;;;;;;;;3592904;40;20701;-80
2021/07/17 07:03:11;;;;;;;30.80;17.45;;;;;;;;;;3584525;40;20247;-82
2021/07/17 07:05:51;;;;;;;24.35;15.68;;;;;;;;;;3592888;40;20215;-81
2021/07/17 07:08:18;;;;;;;21.63;15.60;;;;;;;;;;3584137;40;20826;-82
2021/07/17 07:10:47;;;;;;;27.25;16.58;;;;;;;;;;3584126;40;20378;-81
2021/07/17 07:13:15;;;;;;;28.02;15.60;;;;;;;;;;3592659;40;20223;-82
2021/07/17 07:15:42;;;;;;;19.60;14.60;;;;;;;;;;3592417;40;20773;-81
2021/07/17 07:18:10;;;;;;;25.35;15.48;;;;;;;;;;3592741;40;20230;-80
2021/07/17 07:20:37;;;;;;;30.50;17.70;;;;;;;;;;3592676;40;20243;-81
2021/07/17 07:23:04;;;;;;;26.10;15.32;;;;;;;;;;3592605;40;20240;-82
2021/07/17 07:25:44;;;;;;;22.77;13.88;;;;;;;;;;3592900;40;20239;-81
2021/07/17 07:28:18;;;;;;;22.75;13.43;;;;;;;;;;3592774;40;20243;-80
2021/07/17 07:30:52;;;;;;;20.15;13.10;;;;;;;;;;3584441;40;20681;-80
2021/07/17 07:33:19;;;;;;;25.30;12.88;;;;;;;;;;3592664;40;20223;-80
2021/07/17 07:35:46;;;;;;;21.40;11.75;;;;;;;;;;3592863;40;20765;-82
2021/07/17 07:38:14;;;;;;;19.83;12.45;;;;;;;;;;3592320;40;20245;-81
2021/07/17 07:40:41;;;;;;;15.95;12.13;;;;;;;;;;3592689;40;20246;-82
2021/07/17 07:43:22;;;;;;;20.83;11.40;;;;;;;;;;3592232;40;20291;-80
2021/07/17 07:45:49;;;;;;;17.23;11.40;;;;;;;;;;3583956;40;20243;-80
2021/07/17 07:48:17;;;;;;;18.45;12.25;;;;;;;;;;3592449;40;20781;-78
2021/07/17 07:50:58;;;;;;;26.65;11.77;;;;;;;;;;3591161;40;20267;-81
2021/07/17 07:53:31;;;;;;;24.35;12.00;;;;;;;;;;3591920;40;20776;-81
2021/07/17 07:56:17;;;;;;;16.58;10.52;;;;;;;;;;3592301;40;20226;-85
2021/07/17 07:58:46;;;;;;;18.15;8.55;;;;;;;;;;3583841;40;20231;-83
2021/07/17 08:01:13;;;;;;;20.52;9.63;;;;;;;;;;3592272;40;20257;-81
2021/07/17 08:03:41;;;;;;;15.60;8.77;;;;;;;;;;3591981;40;20231;-81
2021/07/17 08:06:09;;;;;;;17.15;8.27;;;;;;;;;;3592471;40;20238;-81
2021/07/17 08:08:36;;;;;;;11.50;6.45;;;;;;;;;;3591554;40;20295;-81
2021/07/17 08:11:09;;;;;;;14.65;8.02;;;;;;;;;;3592088;40;20250;-81
2021/07/17 08:13:37;;;;;;;12.05;7.03;;;;;;;;;;3592263;40;20250;-81
2021/07/17 08:16:06;;;;;;;12.25;6.43;;;;;;;;;;3592476;40;20215;-81
2021/07/17 08:18:39;;;;;;;12.65;7.15;;;;;;;;;;3591885;40;20269;-82
2021/07/17 08:21:24;;;;;;;13.38;6.95;;;;;;;;;;3590525;40;20382;-82
2021/07/17 08:24:10;;;;;;;10.98;6.47;;;;;;;;;;3591783;40;20227;-80
2021/07/17 08:26:38;;;;;;;15.55;10.85;;;;;;;;;;3592106;40;20226;-84
2021/07/17 08:29:05;;;;;;;9.73;6.20;;;;;;;;;;3591987;40;20243;-81
2021/07/17 08:31:34;;;;;;;11.68;5.85;;;;;;;;;;3585109;40;20246;-81
2021/07/17 08:34:01;;;;;;;11.38;5.68;;;;;;;;;;3591391;40;20210;-84
2021/07/17 08:36:28;;;;;;;10.85;5.93;;;;;;;;;;3591611;40;20413;-84
2021/07/17 08:38:56;;;;;;;9.90;6.20;;;;;;;;;;3592042;40;20231;-85
2021/07/17 08:41:26;;;;;;;9.27;6.47;;;;;;;;;;3592084;40;20218;-83
2021/07/17 08:44:00;;;;;;;7.88;5.65;;;;;;;;;;3591284;40;20215;-81
2021/07/17 08:46:47;;;;;;;8.75;5.32;;;;;;;;;;3584084;40;20625;-80
2021/07/17 08:49:15;;;;;;;11.13;5.70;;;;;;;;;;3590579;40;20235;-80
2021/07/17 08:51:46;;;;;;;8.18;5.35;;;;;;;;;;3622881;23;20242;-80
2021/07/17 08:54:20;;;;;;;11.05;5.15;;;;;;;;;;3601670;40;20248;-82
2021/07/17 08:56:47;;;;;;;9.48;5.00;;;;;;;;;;3599978;39;20234;-81
2021/07/17 08:59:14;;;;;;;10.05;4.65;;;;;;;;;;3600315;40;20234;-81
2021/07/17 09:01:51;;;;;;;5.32;4.82;;;;;;;;;;3599451;40;20234;-84
2021/07/17 09:04:18;;;;;;;7.85;4.35;;;;;;;;;;3601675;40;20222;-84
2021/07/17 09:07:04;;;;;;;8.77;4.50;;;;;;;;;;3599509;40;20225;-82
2021/07/17 09:09:32;;;;;;;8.07;4.53;;;;;;;;;;3601855;39;20213;-84
2021/07/17 09:12:21;;;;;;;6.70;4.10;;;;;;;;;;3593016;39;20235;-83
2021/07/17 09:14:54;;;;;;;8.35;4.80;;;;;;;;;;3601656;40;20222;-84
2021/07/17 09:17:27;;;;;;;7.28;3.45;;;;;;;;;;3601902;40;20261;-83
2021/07/17 09:20:07;;;;;;;6.65;3.80;;;;;;;;;;3602023;40;20210;-83
2021/07/17 09:22:41;;;;;;;6.90;3.97;;;;;;;;;;3602476;40;20241;-85
2021/07/17 09:25:10;;;;;;;4.10;3.70;;;;;;;;;;3594664;40;20234;-80
2021/07/17 09:27:49;;;;;;;31.42;8.95;;;;;;;;;;3603368;40;20230;-85
2021/07/17 09:30:35;;;;;;;6.35;3.60;;;;;;;;;;3596048;40;20264;-83
2021/07/17 09:33:16;;;;;;;6.65;3.38;;;;;;;;;;3594742;40;20265;-81
2021/07/17 09:35:50;;;;;;;5.50;3.03;;;;;;;;;;3603452;40;20226;-81
2021/07/17 09:38:18;;;;;;;5.75;3.17;;;;;;;;;;3603220;40;20239;-82
2021/07/17 09:40:48;;;;;;;4.38;2.97;;;;;;;;;;3594538;40;20697;-84
2021/07/17 09:49:26;;;;;;;5.28;2.67;;;;;;;;;;3621681;23;20220;31
2021/07/17 09:52:10;;;;;;;3.53;2.63;;;;;;;;;;3624187;23;20272;-83
2021/07/17 09:54:44;;;;;;;3.58;3.03;;;;;;;;;;3626700;23;20226;-83
2021/07/17 10:00:05;;;;;;;3.53;2.75;;;;;;;;;;3572975;40;20245;-80
2021/07/17 10:02:53;;;;;;;4.20;2.47;;;;;;;;;;3581922;40;20231;-81
2021/07/17 10:05:37;;;;;;;3.58;2.05;;;;;;;;;;3583231;40;20227;-82
2021/07/17 10:08:13;;;;;;;6.20;2.50;;;;;;;;;;3583177;40;20244;-81
2021/07/17 10:11:01;;;;;;;6.50;2.85;;;;;;;;;;3583273;40;20227;-81
2021/07/17 10:13:28;;;;;;;3.55;2.25;;;;;;;;;;3591265;40;20234;-83
2021/07/17 10:15:57;;;;;;;3.45;2.70;;;;;;;;;;3593247;40;20266;-83
2021/07/17 10:18:25;;;;;;;5.50;2.25;;;;;;;;;;3593145;40;20234;-83
2021/07/17 10:20:58;;;;;;;3.53;2.38;;;;;;;;;;3592082;40;20700;-84
2021/07/17 10:23:27;;;;;;;5.45;1.88;;;;;;;;;;3586524;40;20795;-83
2021/07/17 10:25:55;;;;;;;2.70;1.95;;;;;;;;;;3583060;40;20239;-83
2021/07/17 10:28:23;;;;;;;3.20;1.77;;;;;;;;;;3584253;40;20298;-84
2021/07/17 10:31:04;;;;;;;3.72;1.80;;;;;;;;;;3592959;40;20249;-83
2021/07/17 10:33:37;;;;;;;5.68;2.58;;;;;;;;;;3581033;40;20228;-86
2021/07/17 10:36:11;;;;;;;4.80;1.75;;;;;;;;;;3578882;40;20236;-82
2021/07/17 10:38:46;;;;;;;3.67;1.92;;;;;;;;;;3582991;40;20278;-82
2021/07/17 10:43:56;;;;;;;5.55;1.98;;;;;;;;;;3601965;40;20237;-87
2021/07/17 10:46:27;;;;;;;3.60;2.28;;;;;;;;;;3603319;39;20230;-85
2021/07/17 10:49:07;;;;;;;5.57;3.35;;;;;;;;;;3603058;39;20285;-82
2021/07/17 10:51:52;;;;;;;5.70;2.50;;;;;;;;;;3602869;39;20238;-85
2021/07/17 10:54:31;;;;;;;4.63;2.15;;;;;;;;;;3602635;39;20239;-87
2021/07/17 10:57:11;;;;;;;4.65;2.03;;;;;;;;;;3606019;39;20827;-87
2021/07/17 10:59:45;;;;;;;5.60;2.20;;;;;;;;;;3625246;23;20234;-82
2021/07/17 11:02:16;;;;;;;4.30;2.03;;;;;;;;;;3580168;40;20247;-80
2021/07/17 11:04:51;;;;;;;3.70;1.95;;;;;;;;;;3587393;40;20235;-82
2021/07/17 11:07:40;;;;;;;5.30;3.17;;;;;;;;;;3592495;40;20215;-82
2021/07/17 11:10:41;;;;;;;5.38;3.03;;;;;;;;;;3592929;40;20304;-84
2021/07/17 11:13:30;;;;;;;6.70;2.90;;;;;;;;;;3592248;40;20219;-83
2021/07/17 11:16:05;;;;;;;5.10;2.70;;;;;;;;;;3592399;40;20786;-85
2021/07/17 11:18:33;;;;;;;7.70;3.45;;;;;;;;;;3592743;40;20234;-82
2021/07/17 11:21:11;;;;;;;4.60;2.30;;;;;;;;;;3584365;40;20930;-83
2021/07/17 11:23:51;;;;;;;4.88;2.72;;;;;;;;;;3592780;40;20247;-92
2021/07/17 11:26:32;;;;;;;8.30;4.35;;;;;;;;;;3592331;40;20210;-84
2021/07/17 11:29:07;;;;;;;13.48;8.82;;;;;;;;;;3592257;40;20238;-83
2021/07/17 11:31:48;;;;;;;5.35;2.92;;;;;;;;;;3592164;40;20714;-82
2021/07/17 11:34:32;;;;;;;5.95;2.65;;;;;;;;;;3589711;40;20292;-82
2021/07/17 11:37:02;;;;;;;7.13;2.20;;;;;;;;;;3591558;40;20274;-81
2021/07/17 11:39:30;;;;;;;7.35;2.45;;;;;;;;;;3591456;40;20223;-84
2021/07/17 11:42:18;;;;;;;2.40;1.80;;;;;;;;;;3592044;40;20235;-83
2021/07/17 11:44:52;;;;;;;4.75;2.28;;;;;;;;;;3591747;40;20573;-81
2021/07/17 11:47:28;;;;;;;7.72;2.40;;;;;;;;;;3574027;40;20312;-81
2021/07/17 11:50:03;;;;;;;8.50;2.03;;;;;;;;;;3582329;40;20235;-82
2021/07/17 11:52:43;;;;;;;2.53;1.33;;;;;;;;;;3592149;40;20320;-82
2021/07/17 11:55:11;;;;;;;4.47;1.77;;;;;;;;;;3583697;40;20576;-81
2021/07/17 11:57:41;;;;;;;4.15;1.75;;;;;;;;;;3583604;40;20250;-80
2021/07/17 12:00:10;;;;;;;3.22;2.03;;;;;;;;;;3592169;40;20219;-79
2021/07/17 12:02:56;;;;;;;6.93;2.00;;;;;;;;;;3583387;40;20235;-82
2021/07/17 12:05:29;;;;;;;3.85;1.67;;;;;;;;;;3592575;40;20242;-81
2021/07/17 12:07:57;;;;;;;10.02;2.45;;;;;;;;;;3591569;40;20242;-81
2021/07/17 12:10:31;;;;;;;4.78;2.55;;;;;;;;;;3591637;40;20247;-82
2021/07/17 12:13:02;;;;;;;3.90;2.08;;;;;;;;;;3583173;40;20251;-82
2021/07/17 12:15:33;;;;;;;3.97;2.97;;;;;;;;;;3591623;40;20251;-80
2021/07/17 12:18:13;;;;;;;4.32;2.55;;;;;;;;;;3583440;40;20291;-82
2021/07/17 12:20:41;;;;;;;7.05;2.58;;;;;;;;;;3591865;40;20246;-78
2021/07/17 12:23:15;;;;;;;3.45;1.83;;;;;;;;;;3592161;40;20243;-85
2021/07/17 12:25:43;;;;;;;6.28;1.90;;;;;;;;;;3592213;40;20231;-87
2021/07/17 12:28:19;;;;;;;12.45;6.70;;;;;;;;;;3591799;40;20243;-80
2021/07/17 12:30:59;;;;;;;6.00;2.88;;;;;;;;;;3591131;40;20663;-79
2021/07/17 12:33:39;;;;;;;11.07;5.80;;;;;;;;;;3591194;40;20238;-86
2021/07/17 12:36:11;;;;;;;9.55;4.68;;;;;;;;;;3591103;40;20341;-79
2021/07/17 12:38:39;;;;;;;5.93;3.00;;;;;;;;;;3591879;40;20231;-84
2021/07/17 12:41:17;;;;;;;8.13;5.03;;;;;;;;;;3591032;40;20246;-81
2021/07/17 12:43:55;;;;;;;9.63;5.10;;;;;;;;;;3591899;40;20255;-80
2021/07/17 12:46:29;;;;;;;11.27;5.47;;;;;;;;;;3583512;40;20661;-80
2021/07/17 12:49:11;;;;;;;7.90;5.32;;;;;;;;;;3591974;40;20241;-82
2021/07/17 12:51:45;;;;;;;5.22;3.25;;;;;;;;;;3591732;40;20265;-82
2021/07/17 12:54:19;;;;;;;6.72;2.20;;;;;;;;;;3592063;40;20255;-85
2021/07/17 12:56:47;;;;;;;4.70;2.33;;;;;;;;;;3584655;40;20241;-83
2021/07/17 12:59:17;;;;;;;11.35;2.50;;;;;;;;;;3576436;40;20235;-80
2021/07/17 13:02:07;;;;;;;5.32;2.63;;;;;;;;;;3593258;40;20633;-80
2021/07/17 13:04:45;;;;;;;3.40;1.45;;;;;;;;;;3592005;40;20245;-81
2021/07/17 13:07:12;;;;;;;6.22;2.13;;;;;;;;;;3585045;40;20391;-82
2021/07/17 13:09:49;;;;;;;4.97;2.05;;;;;;;;;;3593725;40;20234;-82
2021/07/17 13:12:17;;;;;;;4.63;1.88;;;;;;;;;;3593521;40;20304;-82
2021/07/17 13:15:04;;;;;;;5.38;2.35;;;;;;;;;;3586483;40;20254;-82
2021/07/17 13:17:32;;;;;;;2.75;2.25;;;;;;;;;;3593623;40;20227;-81
2021/07/17 13:20:04;;;;;;;4.85;2.17;;;;;;;;;;3593379;40;20227;-85
2021/07/17 13:22:36;;;;;;;3.33;1.67;;;;;;;;;;3593399;40;20245;-82
2021/07/17 13:25:16;;;;;;;2.47;1.38;;;;;;;;;;3593539;40;20211;-80
2021/07/17 13:27:44;;;;;;;6.28;2.10;;;;;;;;;;3593529;40;20281;-84
2021/07/17 13:30:29;;;;;;;5.40;2.20;;;;;;;;;;3593546;40;20239;-83
2021/07/17 13:33:10;;;;;;;5.32;1.45;;;;;;;;;;3593387;40;20215;-85
2021/07/17 13:35:40;;;;;;;4.13;1.38;;;;;;;;;;3593425;40;20243;-81
2021/07/17 13:38:22;;;;;;;3.60;1.98;;;;;;;;;;3593406;40;20282;-82
2021/07/17 13:40:56;;;;;;;6.25;1.50;;;;;;;;;;3593488;40;20223;-84
2021/07/17 13:43:24;;;;;;;5.15;1.70;;;;;;;;;;3593446;40;20251;-81
2021/07/17 13:46:04;;;;;;;3.20;2.03;;;;;;;;;;3593576;40;20258;-85
2021/07/17 13:48:31;;;;;;;7.45;2.30;;;;;;;;;;3593467;40;20243;-85
2021/07/17 13:51:04;;;;;;;6.15;2.28;;;;;;;;;;3593358;40;20226;-85
2021/07/17 13:53:43;;;;;;;9.18;2.45;;;;;;;;;;3593362;40;20242;-83
2021/07/17 13:56:12;;;;;;;5.85;1.98;;;;;;;;;;3593539;40;20203;-83
2021/07/17 13:58:39;;;;;;;3.90;1.60;;;;;;;;;;3584714;40;20235;-88
2021/07/17 14:01:09;;;;;;;3.58;1.73;;;;;;;;;;3593343;40;20239;-84
2021/07/17 14:03:38;;;;;;;5.35;2.30;;;;;;;;;;3593336;40;20247;-86
2021/07/17 14:06:13;;;;;;;11.10;1.70;;;;;;;;;;3593298;40;20242;-87
2021/07/17 14:08:58;;;;;;;4.22;1.50;;;;;;;;;;3592633;40;20259;-86
2021/07/17 14:11:27;;;;;;;5.60;2.10;;;;;;;;;;3593173;40;20242;-83
2021/07/17 14:14:00;;;;;;;5.15;2.35;;;;;;;;;;3585088;40;20714;-82
2021/07/17 14:16:41;;;;;;;4.82;1.65;;;;;;;;;;3593349;40;20767;-83
2021/07/17 14:19:26;;;;;;;3.70;1.63;;;;;;;;;;3586104;40;20297;-82
2021/07/17 14:21:54;;;;;;;5.07;1.95;;;;;;;;;;3592009;40;20800;-83
2021/07/17 14:24:21;;;;;;;2.58;1.25;;;;;;;;;;3583740;40;20232;-80
2021/07/17 14:26:55;;;;;;;8.13;1.73;;;;;;;;;;3593151;40;20243;-81
2021/07/17 14:29:22;;;;;;;5.05;2.40;;;;;;;;;;3593150;40;20250;-84
2021/07/17 14:31:51;;;;;;;2.45;1.52;;;;;;;;;;3593097;40;20255;-81
2021/07/17 14:34:24;;;;;;;3.20;1.52;;;;;;;;;;3593132;40;20234;-83
2021/07/17 14:36:51;;;;;;;3.17;1.63;;;;;;;;;;3593072;40;20664;-81
2021/07/17 14:39:19;;;;;;;10.20;2.13;;;;;;;;;;3593130;40;20212;-82
2021/07/17 14:41:59;;;;;;;4.65;1.65;;;;;;;;;;3593080;40;20245;-82
2021/07/17 14:44:46;;;;;;;7.47;2.42;;;;;;;;;;3593234;40;20229;-84
2021/07/17 14:47:15;;;;;;;3.13;1.55;;;;;;;;;;3592708;40;20226;-84
2021/07/17 14:49:54;;;;;;;5.88;1.98;;;;;;;;;;3593144;40;20235;-87
2021/07/17 14:52:22;;;;;;;5.00;1.33;;;;;;;;;;3593005;40;20254;-84
2021/07/17 14:54:49;;;;;;;10.65;2.05;;;;;;;;;;3584387;40;20250;-83
2021/07/17 14:57:16;;;;;;;4.70;1.83;;;;;;;;;;3593076;40;20226;-81
2021/07/17 14:59:45;;;;;;;6.68;3.20;;;;;;;;;;3592878;40;20231;-83
2021/07/17 15:02:13;;;;;;;10.63;5.07;;;;;;;;;;3584125;40;20239;-81
2021/07/17 15:04:43;;;;;;;4.55;2.75;;;;;;;;;;3593097;40;20211;-85
2021/07/17 15:07:10;;;;;;;10.82;4.72;;;;;;;;;;3593033;40;20251;-83
2021/07/17 15:09:39;;;;;;;7.45;3.28;;;;;;;;;;3592940;40;20238;-82
2021/07/17 15:12:12;;;;;;;6.13;4.05;;;;;;;;;;3592762;40;20238;-81
2021/07/17 15:14:39;;;;;;;11.48;6.15;;;;;;;;;;3592923;40;20235;-82
2021/07/17 15:17:13;;;;;;;7.00;3.83;;;;;;;;;;3593124;40;20235;-84
2021/07/17 15:19:42;;;;;;;4.25;2.72;;;;;;;;;;3584274;40;20238;-81
2021/07/17 15:22:09;;;;;;;7.13;3.47;;;;;;;;;;3584277;40;20250;-82
2021/07/17 15:24:55;;;;;;;6.38;3.70;;;;;;;;;;3592876;40;20227;-83